createdAt,value
2022-08-22T00:02:37.187Z,16.54
2022-08-22T00:02:58.023Z,16.85
2022-08-22T00:03:01.812Z,20.37
2022-08-22T00:05:24.235Z,16.45
2022-08-22T00:08:07.592Z,16.36
2022-08-22T00:10:43.259Z,16.25
2022-08-22T00:13:19.728Z,16.19
2022-08-22T00:16:09.176Z,16.17
2022-08-22T00:18:51.052Z,16.16
2022-08-22T00:21:27.312Z,16.19
2022-08-22T00:24:15.436Z,16.20
2022-08-22T00:27:00.779Z,16.24
2022-08-22T00:29:45.674Z,16.25
2022-08-22T00:32:26.299Z,16.27
2022-08-22T00:35:17.502Z,16.27
2022-08-22T00:38:02.653Z,16.25
2022-08-22T00:40:52.614Z,16.25
2022-08-22T00:43:31.215Z,16.19
2022-08-22T00:46:00.554Z,16.12
2022-08-22T00:48:50.966Z,16.05
2022-08-22T00:51:40.374Z,15.94
2022-08-22T00:54:34.709Z,15.91
2022-08-22T00:57:26.236Z,15.89
2022-08-22T01:00:17.315Z,15.89
2022-08-22T01:03:21.524Z,15.83
2022-08-22T01:06:09.538Z,15.73
2022-08-22T01:08:51.279Z,15.66
2022-08-22T01:11:17.816Z,15.60
2022-08-22T01:13:55.942Z,15.57
2022-08-22T01:16:35.085Z,15.54
2022-08-22T01:19:39.345Z,15.52
2022-08-22T01:22:25.753Z,15.51
2022-08-22T01:25:29.322Z,15.50
2022-08-22T01:28:38.651Z,15.51
2022-08-22T01:31:32.132Z,15.50
2022-08-22T01:34:27.125Z,15.53
2022-08-22T01:37:12.029Z,15.49
2022-08-22T01:40:22.983Z,15.43
2022-08-22T01:43:16.508Z,15.35
2022-08-22T01:45:58.618Z,15.32
2022-08-22T01:49:10.632Z,15.30
2022-08-22T01:51:46.267Z,15.25
2022-08-22T01:54:26.637Z,15.20
2022-08-22T01:57:01.294Z,15.17
2022-08-22T01:59:42.401Z,15.15
2022-08-22T02:02:12.214Z,15.14
2022-08-22T02:04:48.342Z,15.12
2022-08-22T02:07:17.585Z,15.13
2022-08-22T02:10:04.405Z,15.16
2022-08-22T02:12:56.848Z,15.16
2022-08-22T02:15:35.184Z,15.11
2022-08-22T02:18:09.114Z,15.04
2022-08-22T02:20:47.722Z,14.96
2022-08-22T02:23:23.153Z,14.93
2022-08-22T02:26:03.331Z,14.93
2022-08-22T02:28:39.032Z,14.91
2022-08-22T02:31:36.566Z,14.89
2022-08-22T02:34:20.367Z,14.88
2022-08-22T02:36:53.848Z,14.87
2022-08-22T02:40:27.412Z,14.74
2022-08-22T02:43:15.504Z,14.92
2022-08-22T02:46:02.048Z,14.92
2022-08-22T02:48:45.018Z,14.97
2022-08-22T02:51:39.659Z,14.98
2022-08-22T02:54:24.799Z,14.96
2022-08-22T02:57:11.397Z,14.90
2022-08-22T02:59:59.249Z,14.80
2022-08-22T03:02:33.699Z,14.77
2022-08-22T03:05:16.478Z,14.75
2022-08-22T03:07:59.777Z,14.77
2022-08-22T03:10:35.137Z,14.77
2022-08-22T03:13:12.462Z,14.77
2022-08-22T03:16:03.818Z,14.74
2022-08-22T03:18:48.608Z,14.69
2022-08-22T03:21:30.402Z,14.65
2022-08-22T03:24:25.574Z,14.68
2022-08-22T03:26:59.842Z,14.72
2022-08-22T03:29:38.400Z,14.77
2022-08-22T03:32:12.820Z,14.83
2022-08-22T03:34:55.053Z,14.89
2022-08-22T03:37:32.321Z,14.98
2022-08-22T03:40:19.967Z,15.04
2022-08-22T03:42:55.969Z,15.07
2022-08-22T03:45:38.576Z,15.10
2022-08-22T03:48:23.474Z,15.09
2022-08-22T03:50:55.896Z,15.08
2022-08-22T03:53:46.152Z,15.09
2022-08-22T03:57:00.561Z,15.05
2022-08-22T03:59:57.976Z,14.99
2022-08-22T04:02:44.512Z,14.95
2022-08-22T04:05:13.015Z,14.93
2022-08-22T04:07:50.723Z,14.89
2022-08-22T04:10:28.923Z,14.86
2022-08-22T04:13:49.348Z,14.79
2022-08-22T04:16:52.190Z,14.72
2022-08-22T04:19:24.829Z,14.71
2022-08-22T04:22:07.790Z,14.73
2022-08-22T04:24:52.879Z,14.77
2022-08-22T04:27:29.323Z,14.82
2022-08-22T04:30:14.607Z,14.80
2022-08-22T04:32:48.986Z,14.73
2022-08-22T04:35:43.064Z,14.70
2022-08-22T04:38:48.313Z,14.63
2022-08-22T04:41:24.360Z,14.59
2022-08-22T04:43:58.933Z,14.57
2022-08-22T04:46:38.800Z,14.55
2022-08-22T04:49:09.747Z,14.68
2022-08-22T04:51:47.631Z,14.86
2022-08-22T04:54:32.676Z,15.03
2022-08-22T04:57:21.430Z,15.20
2022-08-22T04:59:49.827Z,15.33
2022-08-22T05:02:25.066Z,15.48
2022-08-22T05:05:13.338Z,15.63
2022-08-22T05:07:46.770Z,15.75
2022-08-22T05:10:20.950Z,15.82
2022-08-22T05:13:00.499Z,15.96
2022-08-22T05:15:33.410Z,16.05
2022-08-22T05:18:09.422Z,16.10
2022-08-22T05:20:40.373Z,16.14
2022-08-22T05:23:30.046Z,16.21
2022-08-22T05:26:01.841Z,16.30
2022-08-22T05:28:34.462Z,16.38
2022-08-22T05:31:09.375Z,16.47
2022-08-22T05:33:45.563Z,16.52
2022-08-22T05:36:19.574Z,16.62
2022-08-22T05:38:51.414Z,16.70
2022-08-22T05:41:26.879Z,16.74
2022-08-22T05:43:55.305Z,16.78
2022-08-22T05:46:43.243Z,16.83
2022-08-22T05:49:20.878Z,16.87
2022-08-22T05:52:02.718Z,16.89
2022-08-22T05:54:34.673Z,16.92
2022-08-22T05:57:18.792Z,16.97
2022-08-22T05:59:49.819Z,16.99
2022-08-22T06:02:21.547Z,17.01
2022-08-22T06:04:54.706Z,17.06
2022-08-22T06:07:31.205Z,17.09
2022-08-22T06:10:26.449Z,17.13
2022-08-22T06:13:42.430Z,17.13
2022-08-22T06:16:21.494Z,17.10
2022-08-22T06:18:50.842Z,17.10
2022-08-22T06:21:26.293Z,17.21
2022-08-22T06:23:57.522Z,17.30
2022-08-22T06:26:30.951Z,17.33
2022-08-22T06:29:00.672Z,17.33
2022-08-22T06:31:34.544Z,17.37
2022-08-22T06:34:39.939Z,17.46
2022-08-22T06:37:16.917Z,17.54
2022-08-22T06:39:49.298Z,17.60
2022-08-22T06:42:30.571Z,17.67
2022-08-22T06:45:02.854Z,17.74
2022-08-22T06:47:36.256Z,17.80
2022-08-22T06:50:13.623Z,17.91
2022-08-22T06:53:00.818Z,17.96
2022-08-22T06:55:30.076Z,17.89
2022-08-22T06:58:03.954Z,17.88
2022-08-22T07:00:34.613Z,17.99
2022-08-22T07:03:20.414Z,18.08
2022-08-22T07:05:47.341Z,18.17
2022-08-22T07:08:19.029Z,18.25
2022-08-22T07:10:59.732Z,18.36
2022-08-22T07:13:28.352Z,18.43
2022-08-22T07:15:59.106Z,18.53
2022-08-22T07:18:28.172Z,18.60
2022-08-22T07:21:04.172Z,18.64
2022-08-22T07:23:36.133Z,18.66
2022-08-22T07:26:22.591Z,18.71
2022-08-22T07:29:24.051Z,18.87
2022-08-22T07:31:53.278Z,18.96
2022-08-22T07:34:38.089Z,18.98
2022-08-22T07:37:14.444Z,19.03
2022-08-22T07:39:54.162Z,19.08
2022-08-22T07:42:30.353Z,19.19
2022-08-22T07:45:06.921Z,19.30
2022-08-22T07:47:49.740Z,19.38
2022-08-22T07:50:22.975Z,19.47
2022-08-22T07:52:50.871Z,19.54
2022-08-22T07:55:22.867Z,19.63
2022-08-22T07:58:04.011Z,19.73
2022-08-22T08:00:32.425Z,19.75
2022-08-22T08:03:04.432Z,19.85
2022-08-22T08:05:35.910Z,19.92
2022-08-22T08:08:08.870Z,19.98
2022-08-22T08:10:42.507Z,20.03
2022-08-22T08:13:14.723Z,20.06
2022-08-22T08:15:45.810Z,20.07
2022-08-22T08:18:19.176Z,20.17
2022-08-22T08:20:54.642Z,20.29
2022-08-22T08:23:23.321Z,20.30
2022-08-22T08:25:53.886Z,20.33
2022-08-22T08:28:34.619Z,20.37
2022-08-22T08:31:09.824Z,20.44
2022-08-22T08:33:42.056Z,20.52
2022-08-22T08:36:21.574Z,20.67
2022-08-22T08:38:58.119Z,20.72
2022-08-22T08:41:50.846Z,20.82
2022-08-22T08:44:40.883Z,20.90
2022-08-22T08:47:25.846Z,21.01
2022-08-22T08:49:55.166Z,21.12
2022-08-22T08:52:39.137Z,21.23
2022-08-22T08:55:21.849Z,21.34
2022-08-22T08:58:21.561Z,21.49
2022-08-22T09:01:02.442Z,21.64
2022-08-22T09:04:01.174Z,21.79
2022-08-22T09:07:01.935Z,21.90
2022-08-22T09:09:41.591Z,22.02
2022-08-22T09:12:26.291Z,22.13
2022-08-22T09:15:27.033Z,22.28
2022-08-22T09:18:24.364Z,22.43
2022-08-22T09:21:27.597Z,22.57
2022-08-22T09:24:16.260Z,22.69
2022-08-22T09:26:57.116Z,22.82
2022-08-22T09:29:30.130Z,22.88
2022-08-22T09:35:08.043Z,23.00
2022-08-22T09:37:49.843Z,23.08
2022-08-22T09:40:29.251Z,23.13
2022-08-22T09:43:14.128Z,23.22
2022-08-22T09:46:03.083Z,23.32
2022-08-22T09:48:48.669Z,23.40
2022-08-22T09:51:32.709Z,23.45
2022-08-22T09:54:53.202Z,23.50
2022-08-22T09:57:28.649Z,23.62
2022-08-22T10:00:13.947Z,23.71
2022-08-22T10:03:03.304Z,23.82
2022-08-22T10:05:48.121Z,23.89
2022-08-22T10:08:14.764Z,23.99
2022-08-22T10:11:06.507Z,24.10
2022-08-22T10:13:57.720Z,24.16
2022-08-22T10:16:52.079Z,24.18
2022-08-22T10:19:36.236Z,24.08
2022-08-22T10:22:30.043Z,23.96
2022-08-22T10:25:09.521Z,23.95
2022-08-22T10:28:02.948Z,24.23
2022-08-22T10:30:54.907Z,24.54
2022-08-22T10:33:21.471Z,24.78
2022-08-22T10:36:12.960Z,24.91
2022-08-22T10:38:46.788Z,25.03
2022-08-22T10:41:32.311Z,25.14
2022-08-22T10:44:13.915Z,25.09
2022-08-22T10:46:51.879Z,25.20
2022-08-22T10:49:31.958Z,25.37
2022-08-22T10:52:39.705Z,25.55
2022-08-22T10:55:11.420Z,25.69
2022-08-22T10:57:53.147Z,25.89
2022-08-22T11:00:35.039Z,26.10
2022-08-22T11:03:21.844Z,26.28
2022-08-22T11:05:53.376Z,26.10
2022-08-22T11:08:34.870Z,26.13
2022-08-22T11:11:35.378Z,26.37
2022-08-22T11:14:12.077Z,26.55
2022-08-22T11:16:55.005Z,26.65
2022-08-22T11:19:28.097Z,26.81
2022-08-22T11:22:22.360Z,27.07
2022-08-22T11:25:11.746Z,27.35
2022-08-22T11:28:06.316Z,27.55
2022-08-22T11:31:07.172Z,27.63
2022-08-22T11:33:46.966Z,27.86
2022-08-22T11:36:26.167Z,27.94
2022-08-22T11:39:13.836Z,28.01
2022-08-22T11:41:48.459Z,28.16
2022-08-22T11:44:50.881Z,28.28
2022-08-22T11:47:26.509Z,28.25
2022-08-22T11:50:14.056Z,28.43
2022-08-22T11:52:56.726Z,28.53
2022-08-22T11:55:36.532Z,28.67
2022-08-22T11:58:12.574Z,28.81
2022-08-22T12:00:50.740Z,28.82
2022-08-22T12:03:35.772Z,28.93
2022-08-22T12:06:17.632Z,29.03
2022-08-22T12:08:49.576Z,29.15
2022-08-22T12:11:30.483Z,29.36
2022-08-22T12:14:03.893Z,29.49
2022-08-22T12:16:54.978Z,29.58
2022-08-22T12:19:33.167Z,29.67
2022-08-22T12:22:28.962Z,29.76
2022-08-22T12:25:30.363Z,29.83
2022-08-22T12:28:36.559Z,29.75
2022-08-22T12:31:05.788Z,29.36
2022-08-22T12:33:46.322Z,28.97
2022-08-22T12:36:20.896Z,28.97
2022-08-22T12:39:15.361Z,29.16
2022-08-22T12:42:09.848Z,29.10
2022-08-22T12:44:42.795Z,28.85
2022-08-22T12:47:32.056Z,28.67
2022-08-22T12:50:31.569Z,28.93
2022-08-22T12:53:22.932Z,29.25
2022-08-22T12:56:05.005Z,29.50
2022-08-22T12:59:00.990Z,29.74
2022-08-22T13:01:39.174Z,29.90
2022-08-22T13:04:32.511Z,29.96
2022-08-22T13:07:24.639Z,29.97
2022-08-22T13:09:59.341Z,30.00
2022-08-22T13:12:36.982Z,30.10
2022-08-22T13:15:31.791Z,30.25
2022-08-22T13:18:25.089Z,29.95
2022-08-22T13:20:51.444Z,29.54
2022-08-22T13:23:24.857Z,29.20
2022-08-22T13:26:10.520Z,28.95
2022-08-22T13:32:00.474Z,29.28
2022-08-22T13:34:38.455Z,29.69
2022-08-22T13:37:11.497Z,29.88
2022-08-22T13:39:42.566Z,30.03
2022-08-22T13:42:20.383Z,30.14
2022-08-22T13:45:02.670Z,30.13
2022-08-22T13:47:32.484Z,29.87
2022-08-22T13:50:19.215Z,29.32
2022-08-22T13:53:10.628Z,28.83
2022-08-22T13:55:51.377Z,28.25
2022-08-22T13:58:46.607Z,27.87
2022-08-22T14:01:37.879Z,27.82
2022-08-22T14:04:35.868Z,28.50
2022-08-22T14:07:06.004Z,28.86
2022-08-22T14:09:54.295Z,28.79
2022-08-22T14:12:51.012Z,29.11
2022-08-22T14:15:44.668Z,29.21
2022-08-22T14:18:30.589Z,29.07
2022-08-22T14:21:40.575Z,28.46
2022-08-22T14:24:19.893Z,28.26
2022-08-22T14:26:53.894Z,28.46
2022-08-22T14:29:29.017Z,28.86
2022-08-22T14:32:11.988Z,29.19
2022-08-22T14:34:42.701Z,29.50
2022-08-22T14:37:21.720Z,29.73
2022-08-22T14:39:56.784Z,29.91
2022-08-22T14:42:30.450Z,30.05
2022-08-22T14:45:11.361Z,30.28
2022-08-22T14:47:55.676Z,30.29
2022-08-22T14:50:43.464Z,30.37
2022-08-22T14:53:24.963Z,30.40
2022-08-22T14:56:27.838Z,30.38
2022-08-22T14:59:02.326Z,30.47
2022-08-22T15:01:32.845Z,30.56
2022-08-22T15:04:02.726Z,30.58
2022-08-22T15:06:37.076Z,30.58
2022-08-22T15:09:26.617Z,30.65
2022-08-22T15:11:53.458Z,30.69
2022-08-22T15:14:27.227Z,30.55
2022-08-22T15:16:57.659Z,30.43
2022-08-22T15:19:34.621Z,30.42
2022-08-22T15:22:13.890Z,30.16
2022-08-22T15:24:50.799Z,29.91
2022-08-22T15:27:25.302Z,30.14
2022-08-22T15:30:02.566Z,30.11
2022-08-22T15:32:31.625Z,29.71
2022-08-22T15:35:08.818Z,29.42
2022-08-22T15:37:54.106Z,29.56
2022-08-22T15:40:40.619Z,29.70
2022-08-22T15:43:28.886Z,29.81
2022-08-22T15:46:32.949Z,29.83
2022-08-22T15:49:19.469Z,29.93
2022-08-22T15:52:13.082Z,29.99
2022-08-22T15:54:46.757Z,30.07
2022-08-22T15:57:25.606Z,30.14
2022-08-22T15:59:58.750Z,30.13
2022-08-22T16:02:28.689Z,30.10
2022-08-22T16:05:07.347Z,30.07
2022-08-22T16:07:39.790Z,30.00
2022-08-22T16:10:30.080Z,29.85
2022-08-22T16:13:34.103Z,29.76
2022-08-22T16:16:45.121Z,29.79
2022-08-22T16:19:24.402Z,29.81
2022-08-22T16:21:54.220Z,29.80
2022-08-22T16:24:21.720Z,29.76
2022-08-22T16:26:48.893Z,29.70
2022-08-22T16:29:41.599Z,29.59
2022-08-22T16:32:11.387Z,29.57
2022-08-22T16:34:37.973Z,29.59
2022-08-22T16:37:14.591Z,29.51
2022-08-22T16:40:03.318Z,29.48
2022-08-22T16:43:14.855Z,29.48
2022-08-22T16:45:48.541Z,29.41
2022-08-22T16:48:35.433Z,29.20
2022-08-22T16:51:13.592Z,29.10
2022-08-22T16:53:45.973Z,29.02
2022-08-22T16:56:28.441Z,28.97
2022-08-22T16:59:44.697Z,28.92
2022-08-22T17:02:26.992Z,28.86
2022-08-22T17:04:59.439Z,28.73
2022-08-22T17:07:47.421Z,28.71
2022-08-22T17:10:37.718Z,28.73
2022-08-22T17:13:27.497Z,28.65
2022-08-22T17:16:32.403Z,28.58
2022-08-22T17:18:58.946Z,28.44
2022-08-22T17:21:51.709Z,28.23
2022-08-22T17:24:33.479Z,27.94
2022-08-22T17:27:08.176Z,27.59
2022-08-22T17:29:40.048Z,27.27
2022-08-22T17:32:09.566Z,27.11
2022-08-22T17:35:02.246Z,26.92
2022-08-22T17:37:41.056Z,26.80
2022-08-22T17:40:17.688Z,26.75
2022-08-22T17:43:21.545Z,26.54
2022-08-22T17:46:06.319Z,26.30
2022-08-22T17:48:48.077Z,26.11
2022-08-22T17:51:30.498Z,25.90
2022-08-22T17:54:06.179Z,25.68
2022-08-22T17:56:43.775Z,25.48
2022-08-22T17:59:23.482Z,25.33
2022-08-22T18:01:57.793Z,25.16
2022-08-22T18:05:04.723Z,25.01
2022-08-22T18:07:53.286Z,24.85
2022-08-22T18:10:28.632Z,24.69
2022-08-22T18:13:27.480Z,24.48
2022-08-22T18:16:27.131Z,24.23
2022-08-22T18:19:11.821Z,24.01
2022-08-22T18:21:50.641Z,23.84
2022-08-22T18:24:33.270Z,23.68
2022-08-22T18:27:09.449Z,23.53
2022-08-22T18:30:11.513Z,23.36
2022-08-22T18:32:48.537Z,23.25
2022-08-22T18:35:21.943Z,23.14
2022-08-22T18:37:48.528Z,23.04
2022-08-22T18:40:33.402Z,22.94
2022-08-22T18:43:13.583Z,22.84
2022-08-22T18:45:45.935Z,22.75
2022-08-22T18:48:26.459Z,22.68
2022-08-22T18:51:13.486Z,22.59
2022-08-22T18:53:50.522Z,22.43
2022-08-22T18:57:04.103Z,22.40
2022-08-22T18:59:43.815Z,22.33
2022-08-22T19:02:39.607Z,22.28
2022-08-22T19:05:21.683Z,22.22
2022-08-22T19:08:07.132Z,22.18
2022-08-22T19:10:39.354Z,22.16
2022-08-22T19:13:11.664Z,22.13
2022-08-22T19:15:48.891Z,22.04
2022-08-22T19:18:27.104Z,21.94
2022-08-22T19:21:31.866Z,21.82
2022-08-22T19:23:58.850Z,21.67
2022-08-22T19:26:33.704Z,21.56
2022-08-22T19:29:08.775Z,21.51
2022-08-22T19:31:41.773Z,21.47
2022-08-22T19:34:29.347Z,21.42
2022-08-22T19:37:32.015Z,21.32
2022-08-22T19:40:07.391Z,21.17
2022-08-22T19:42:38.299Z,21.12
2022-08-22T19:45:29.283Z,21.10
2022-08-22T19:48:00.703Z,21.03
2022-08-22T19:50:33.046Z,20.93
2022-08-22T19:53:05.675Z,20.85
2022-08-22T19:55:37.971Z,20.83
2022-08-22T19:58:35.399Z,20.79
2022-08-22T20:01:28.203Z,20.75
2022-08-22T20:04:01.083Z,20.69
2022-08-22T20:06:44.263Z,20.65
2022-08-22T20:09:23.545Z,20.57
2022-08-22T20:12:25.727Z,20.41
2022-08-22T20:14:52.551Z,20.46
2022-08-22T20:17:25.171Z,20.43
2022-08-22T20:20:17.768Z,20.42
2022-08-22T20:23:15.803Z,20.35
2022-08-22T20:25:48.712Z,20.26
2022-08-22T20:28:46.553Z,20.18
2022-08-22T20:31:22.322Z,20.09
2022-08-22T20:33:58.050Z,19.98
2022-08-22T20:36:28.394Z,19.89
2022-08-22T20:39:01.675Z,19.81
2022-08-22T20:41:35.705Z,19.74
2022-08-22T20:44:21.735Z,19.62
2022-08-22T20:46:53.164Z,19.51
2022-08-22T20:49:24.763Z,19.39
2022-08-22T20:52:21.535Z,19.36
2022-08-22T20:55:24.104Z,19.33
2022-08-22T20:58:01.102Z,19.30
2022-08-22T21:00:49.733Z,19.20
2022-08-22T21:03:49.961Z,19.11
2022-08-22T21:06:20.076Z,19.17
2022-08-22T21:09:08.516Z,19.17
2022-08-22T21:11:40.736Z,19.08
2022-08-22T21:14:21.448Z,19.08
2022-08-22T21:16:48.370Z,19.06
2022-08-22T21:19:20.873Z,19.08
2022-08-22T21:21:47.616Z,19.10
2022-08-22T21:24:14.235Z,19.09
2022-08-22T21:26:49.923Z,19.07
2022-08-22T21:29:16.515Z,19.06
2022-08-22T21:32:09.596Z,19.04
2022-08-22T21:34:42.559Z,18.96
2022-08-22T21:37:14.348Z,18.90
2022-08-22T21:39:49.198Z,18.97
2022-08-22T21:42:25.003Z,18.98
2022-08-22T21:44:58.383Z,18.99
2022-08-22T21:47:37.296Z,19.00
2022-08-22T21:50:12.957Z,19.02
2022-08-22T21:52:46.682Z,19.00
2022-08-22T21:55:26.604Z,19.01
2022-08-22T21:58:12.532Z,19.04
2022-08-22T22:00:51.664Z,19.03
2022-08-22T22:03:27.297Z,19.00
2022-08-22T22:05:58.044Z,18.99
2022-08-22T22:08:25.860Z,18.98
2022-08-22T22:11:01.943Z,19.02
2022-08-22T22:13:31.410Z,19.02
2022-08-22T22:15:58.207Z,18.94
2022-08-22T22:18:29.713Z,18.94
2022-08-22T22:20:57.268Z,18.85
2022-08-22T22:23:25.165Z,18.78
2022-08-22T22:25:54.358Z,18.68
2022-08-22T22:28:29.025Z,18.63
2022-08-22T22:30:56.024Z,18.52
2022-08-22T22:33:25.732Z,18.48
2022-08-22T22:35:54.377Z,18.45
2022-08-22T22:38:24.098Z,18.39
2022-08-22T22:40:52.030Z,18.29
2022-08-22T22:43:19.289Z,18.27
2022-08-22T22:45:46.105Z,18.22
2022-08-22T22:48:15.750Z,18.17
2022-08-22T22:50:53.054Z,18.15
2022-08-22T22:53:21.445Z,18.12
2022-08-22T22:56:00.706Z,18.11
2022-08-22T22:58:28.611Z,18.02
2022-08-22T23:00:56.528Z,17.98
2022-08-22T23:03:23.385Z,17.92
2022-08-22T23:05:49.972Z,17.93
2022-08-22T23:08:16.575Z,17.92
2022-08-22T23:10:43.147Z,17.92
2022-08-22T23:13:09.987Z,17.92
2022-08-22T23:15:37.162Z,17.93
2022-08-22T23:18:03.852Z,17.93
2022-08-22T23:20:30.493Z,17.96
2022-08-22T23:22:57.134Z,17.96
2022-08-22T23:25:24.061Z,17.97
2022-08-22T23:27:52.592Z,17.96
2022-08-22T23:30:20.710Z,17.92
2022-08-22T23:32:47.594Z,17.86
2022-08-22T23:35:14.222Z,17.84
2022-08-22T23:37:40.835Z,17.79
2022-08-22T23:40:09.363Z,17.68
2022-08-22T23:42:36.144Z,17.65
2022-08-22T23:45:03.287Z,17.54
2022-08-22T23:47:30.007Z,17.44
2022-08-22T23:49:56.805Z,17.33
2022-08-22T23:52:23.469Z,17.27
2022-08-22T23:54:54.517Z,17.27
2022-08-22T23:57:26.574Z,17.22
2022-08-22T23:59:57.997Z,17.14
